sensor_id;sensor_type;location;lat;lon;timestamp;P1;durP1;ratioP1;P2;durP2;ratioP2
23680;SDS011;62915;50.832;4.462;2024-01-16T00:01:42;15.80;;;5.32;;
23680;SDS011;62915;50.832;4.462;2024-01-16T00:04:08;13.77;;;5.35;;
23680;SDS011;62915;50.832;4.462;2024-01-16T00:06:38;10.40;;;5.53;;
23680;SDS011;62915;50.832;4.462;2024-01-16T00:09:04;17.73;;;5.45;;
23680;SDS011;62915;50.832;4.462;2024-01-16T00:11:30;15.00;;;5.45;;
23680;SDS011;62915;50.832;4.462;2024-01-16T00:13:56;15.48;;;5.10;;
23680;SDS011;62915;50.832;4.462;2024-01-16T00:16:21;17.02;;;5.75;;
23680;SDS011;62915;50.832;4.462;2024-01-16T00:18:47;14.30;;;5.30;;
23680;SDS011;62915;50.832;4.462;2024-01-16T00:21:13;13.70;;;5.95;;
23680;SDS011;62915;50.832;4.462;2024-01-16T00:23:38;10.30;;;6.20;;
23680;SDS011;62915;50.832;4.462;2024-01-16T00:26:04;20.70;;;5.75;;
23680;SDS011;62915;50.832;4.462;2024-01-16T00:28:31;13.45;;;5.53;;
23680;SDS011;62915;50.832;4.462;2024-01-16T00:30:57;13.35;;;5.85;;
23680;SDS011;62915;50.832;4.462;2024-01-16T00:33:23;16.35;;;5.90;;
23680;SDS011;62915;50.832;4.462;2024-01-16T00:35:49;18.92;;;5.88;;
23680;SDS011;62915;50.832;4.462;2024-01-16T00:38:14;14.02;;;5.85;;
23680;SDS011;62915;50.832;4.462;2024-01-16T00:40:40;14.45;;;5.65;;
23680;SDS011;62915;50.832;4.462;2024-01-16T00:43:06;13.52;;;5.97;;
23680;SDS011;62915;50.832;4.462;2024-01-16T00:45:32;17.33;;;5.47;;
23680;SDS011;62915;50.832;4.462;2024-01-16T00:47:57;15.02;;;5.45;;
23680;SDS011;62915;50.832;4.462;2024-01-16T00:50:23;16.00;;;5.63;;
23680;SDS011;62915;50.832;4.462;2024-01-16T00:52:49;13.35;;;4.95;;
23680;SDS011;62915;50.832;4.462;2024-01-16T00:55:15;12.25;;;5.28;;
23680;SDS011;62915;50.832;4.462;2024-01-16T00:57:41;14.57;;;5.93;;
23680;SDS011;62915;50.832;4.462;2024-01-16T01:00:06;13.52;;;5.88;;
23680;SDS011;62915;50.832;4.462;2024-01-16T01:02:34;12.25;;;4.82;;
23680;SDS011;62915;50.832;4.462;2024-01-16T01:05:00;14.05;;;4.78;;
23680;SDS011;62915;50.832;4.462;2024-01-16T01:07:26;14.60;;;5.32;;
23680;SDS011;62915;50.832;4.462;2024-01-16T01:09:52;13.32;;;4.55;;
23680;SDS011;62915;50.832;4.462;2024-01-16T01:12:17;10.93;;;4.88;;
23680;SDS011;62915;50.832;4.462;2024-01-16T01:14:43;16.33;;;5.13;;
23680;SDS011;62915;50.832;4.462;2024-01-16T01:17:09;8.25;;;4.90;;
23680;SDS011;62915;50.832;4.462;2024-01-16T01:19:35;16.80;;;4.85;;
23680;SDS011;62915;50.832;4.462;2024-01-16T01:22:00;20.83;;;5.65;;
23680;SDS011;62915;50.832;4.462;2024-01-16T01:24:26;13.13;;;5.70;;
23680;SDS011;62915;50.832;4.462;2024-01-16T01:26:52;11.15;;;4.32;;
23680;SDS011;62915;50.832;4.462;2024-01-16T01:29:17;15.85;;;5.80;;
23680;SDS011;62915;50.832;4.462;2024-01-16T01:31:46;10.95;;;5.70;;
23680;SDS011;62915;50.832;4.462;2024-01-16T01:34:15;9.48;;;5.30;;
23680;SDS011;62915;50.832;4.462;2024-01-16T01:36:40;11.23;;;5.72;;
23680;SDS011;62915;50.832;4.462;2024-01-16T01:39:08;9.57;;;5.25;;
23680;SDS011;62915;50.832;4.462;2024-01-16T01:41:33;11.73;;;5.28;;
23680;SDS011;62915;50.832;4.462;2024-01-16T01:43:59;9.85;;;5.18;;
23680;SDS011;62915;50.832;4.462;2024-01-16T01:46:25;13.40;;;5.20;;
23680;SDS011;62915;50.832;4.462;2024-01-16T01:48:51;11.77;;;5.30;;
23680;SDS011;62915;50.832;4.462;2024-01-16T01:51:18;9.85;;;4.75;;
23680;SDS011;62915;50.832;4.462;2024-01-16T01:53:44;10.38;;;4.70;;
23680;SDS011;62915;50.832;4.462;2024-01-16T01:56:14;8.90;;;4.80;;
23680;SDS011;62915;50.832;4.462;2024-01-16T01:58:43;11.18;;;5.03;;
23680;SDS011;62915;50.832;4.462;2024-01-16T02:01:10;14.07;;;5.30;;
23680;SDS011;62915;50.832;4.462;2024-01-16T02:03:42;12.38;;;4.85;;
23680;SDS011;62915;50.832;4.462;2024-01-16T02:06:09;16.13;;;4.85;;
23680;SDS011;62915;50.832;4.462;2024-01-16T02:08:36;12.88;;;4.55;;
23680;SDS011;62915;50.832;4.462;2024-01-16T02:11:02;9.95;;;4.88;;
23680;SDS011;62915;50.832;4.462;2024-01-16T02:13:28;9.52;;;4.47;;
23680;SDS011;62915;50.832;4.462;2024-01-16T02:15:54;10.70;;;4.82;;
23680;SDS011;62915;50.832;4.462;2024-01-16T02:18:19;9.10;;;4.38;;
23680;SDS011;62915;50.832;4.462;2024-01-16T02:20:45;8.82;;;4.40;;
23680;SDS011;62915;50.832;4.462;2024-01-16T02:23:12;11.32;;;4.70;;
23680;SDS011;62915;50.832;4.462;2024-01-16T02:25:42;14.48;;;3.92;;
23680;SDS011;62915;50.832;4.462;2024-01-16T02:28:08;14.15;;;4.90;;
23680;SDS011;62915;50.832;4.462;2024-01-16T02:30:34;15.45;;;4.97;;
23680;SDS011;62915;50.832;4.462;2024-01-16T02:33:00;13.25;;;4.50;;
23680;SDS011;62915;50.832;4.462;2024-01-16T02:35:25;10.25;;;4.82;;
23680;SDS011;62915;50.832;4.462;2024-01-16T02:37:51;12.82;;;5.05;;
23680;SDS011;62915;50.832;4.462;2024-01-16T02:40:17;13.43;;;4.60;;
23680;SDS011;62915;50.832;4.462;2024-01-16T02:42:43;17.73;;;5.30;;
23680;SDS011;62915;50.832;4.462;2024-01-16T02:45:09;11.35;;;4.90;;
23680;SDS011;62915;50.832;4.462;2024-01-16T02:47:35;14.77;;;5.05;;
23680;SDS011;62915;50.832;4.462;2024-01-16T02:50:01;8.77;;;4.28;;
23680;SDS011;62915;50.832;4.462;2024-01-16T02:52:27;10.60;;;4.25;;
23680;SDS011;62915;50.832;4.462;2024-01-16T02:54:53;17.33;;;3.97;;
23680;SDS011;62915;50.832;4.462;2024-01-16T02:57:19;10.77;;;4.60;;
23680;SDS011;62915;50.832;4.462;2024-01-16T02:59:45;12.95;;;5.03;;
23680;SDS011;62915;50.832;4.462;2024-01-16T03:02:11;11.73;;;4.55;;
23680;SDS011;62915;50.832;4.462;2024-01-16T03:04:37;12.85;;;4.63;;
23680;SDS011;62915;50.832;4.462;2024-01-16T03:07:03;14.65;;;4.80;;
23680;SDS011;62915;50.832;4.462;2024-01-16T03:09:29;10.50;;;4.40;;
23680;SDS011;62915;50.832;4.462;2024-01-16T03:11:55;14.38;;;4.43;;
23680;SDS011;62915;50.832;4.462;2024-01-16T03:14:20;9.43;;;3.95;;
23680;SDS011;62915;50.832;4.462;2024-01-16T03:16:46;9.23;;;4.82;;
23680;SDS011;62915;50.832;4.462;2024-01-16T03:19:12;12.43;;;4.28;;
23680;SDS011;62915;50.832;4.462;2024-01-16T03:21:38;9.93;;;4.53;;
23680;SDS011;62915;50.832;4.462;2024-01-16T03:24:06;10.80;;;4.75;;
23680;SDS011;62915;50.832;4.462;2024-01-16T03:26:32;10.57;;;4.68;;
23680;SDS011;62915;50.832;4.462;2024-01-16T03:28:58;16.13;;;5.25;;
23680;SDS011;62915;50.832;4.462;2024-01-16T03:31:24;9.82;;;4.53;;
23680;SDS011;62915;50.832;4.462;2024-01-16T03:33:49;9.40;;;4.60;;
23680;SDS011;62915;50.832;4.462;2024-01-16T03:36:15;10.00;;;4.13;;
23680;SDS011;62915;50.832;4.462;2024-01-16T03:38:44;9.60;;;4.47;;
23680;SDS011;62915;50.832;4.462;2024-01-16T03:41:10;11.02;;;4.50;;
23680;SDS011;62915;50.832;4.462;2024-01-16T03:43:37;11.48;;;4.63;;
23680;SDS011;62915;50.832;4.462;2024-01-16T03:46:02;11.68;;;4.57;;
23680;SDS011;62915;50.832;4.462;2024-01-16T03:48:28;12.02;;;4.70;;
23680;SDS011;62915;50.832;4.462;2024-01-16T03:50:55;9.60;;;4.40;;
23680;SDS011;62915;50.832;4.462;2024-01-16T03:53:21;11.45;;;4.68;;
23680;SDS011;62915;50.832;4.462;2024-01-16T03:55:47;10.05;;;4.30;;
23680;SDS011;62915;50.832;4.462;2024-01-16T03:58:14;16.45;;;5.45;;
23680;SDS011;62915;50.832;4.462;2024-01-16T04:00:40;16.55;;;5.60;;
23680;SDS011;62915;50.832;4.462;2024-01-16T04:03:06;12.70;;;4.90;;
23680;SDS011;62915;50.832;4.462;2024-01-16T04:05:32;11.38;;;4.72;;
23680;SDS011;62915;50.832;4.462;2024-01-16T04:07:58;13.25;;;5.53;;
23680;SDS011;62915;50.832;4.462;2024-01-16T04:10:24;14.88;;;5.78;;
23680;SDS011;62915;50.832;4.462;2024-01-16T04:12:50;9.27;;;4.68;;
23680;SDS011;62915;50.832;4.462;2024-01-16T04:15:15;11.32;;;5.35;;
23680;SDS011;62915;50.832;4.462;2024-01-16T04:17:41;11.98;;;5.20;;
23680;SDS011;62915;50.832;4.462;2024-01-16T04:20:07;11.55;;;4.70;;
23680;SDS011;62915;50.832;4.462;2024-01-16T04:22:33;12.27;;;5.95;;
23680;SDS011;62915;50.832;4.462;2024-01-16T04:24:58;13.82;;;6.18;;
23680;SDS011;62915;50.832;4.462;2024-01-16T04:27:24;13.98;;;5.88;;
23680;SDS011;62915;50.832;4.462;2024-01-16T04:29:52;10.00;;;5.25;;
23680;SDS011;62915;50.832;4.462;2024-01-16T04:32:18;9.77;;;5.05;;
23680;SDS011;62915;50.832;4.462;2024-01-16T04:34:44;12.18;;;5.70;;
23680;SDS011;62915;50.832;4.462;2024-01-16T04:37:10;13.85;;;6.43;;
23680;SDS011;62915;50.832;4.462;2024-01-16T04:39:36;11.52;;;5.82;;
23680;SDS011;62915;50.832;4.462;2024-01-16T04:42:01;12.95;;;5.65;;
23680;SDS011;62915;50.832;4.462;2024-01-16T04:44:27;13.23;;;5.60;;
23680;SDS011;62915;50.832;4.462;2024-01-16T04:46:53;12.27;;;6.05;;
23680;SDS011;62915;50.832;4.462;2024-01-16T04:49:19;11.07;;;5.30;;
23680;SDS011;62915;50.832;4.462;2024-01-16T04:51:44;9.68;;;5.40;;
23680;SDS011;62915;50.832;4.462;2024-01-16T04:54:11;11.35;;;5.53;;
23680;SDS011;62915;50.832;4.462;2024-01-16T04:56:37;12.15;;;5.55;;
23680;SDS011;62915;50.832;4.462;2024-01-16T04:59:03;14.90;;;5.70;;
23680;SDS011;62915;50.832;4.462;2024-01-16T05:01:28;9.27;;;5.45;;
23680;SDS011;62915;50.832;4.462;2024-01-16T05:03:54;11.60;;;6.10;;
23680;SDS011;62915;50.832;4.462;2024-01-16T05:06:20;13.98;;;5.53;;
23680;SDS011;62915;50.832;4.462;2024-01-16T05:08:46;14.60;;;5.63;;
23680;SDS011;62915;50.832;4.462;2024-01-16T05:11:12;13.07;;;5.30;;
23680;SDS011;62915;50.832;4.462;2024-01-16T05:13:37;12.30;;;5.25;;
23680;SDS011;62915;50.832;4.462;2024-01-16T05:16:03;17.20;;;5.78;;
23680;SDS011;62915;50.832;4.462;2024-01-16T05:18:29;15.85;;;5.68;;
23680;SDS011;62915;50.832;4.462;2024-01-16T05:20:55;14.10;;;5.60;;
23680;SDS011;62915;50.832;4.462;2024-01-16T05:23:21;11.50;;;5.85;;
23680;SDS011;62915;50.832;4.462;2024-01-16T05:25:47;11.38;;;4.78;;
23680;SDS011;62915;50.832;4.462;2024-01-16T05:28:13;17.67;;;6.10;;
23680;SDS011;62915;50.832;4.462;2024-01-16T05:30:38;14.25;;;5.60;;
23680;SDS011;62915;50.832;4.462;2024-01-16T05:33:04;13.02;;;5.30;;
23680;SDS011;62915;50.832;4.462;2024-01-16T05:35:30;12.48;;;5.43;;
23680;SDS011;62915;50.832;4.462;2024-01-16T05:37:55;14.52;;;6.20;;
23680;SDS011;62915;50.832;4.462;2024-01-16T05:40:22;10.77;;;5.45;;
23680;SDS011;62915;50.832;4.462;2024-01-16T05:42:48;12.18;;;5.72;;
23680;SDS011;62915;50.832;4.462;2024-01-16T05:45:14;14.30;;;5.85;;
23680;SDS011;62915;50.832;4.462;2024-01-16T05:47:40;17.05;;;6.35;;
23680;SDS011;62915;50.832;4.462;2024-01-16T05:50:06;10.93;;;5.72;;
23680;SDS011;62915;50.832;4.462;2024-01-16T05:52:32;12.82;;;6.63;;
23680;SDS011;62915;50.832;4.462;2024-01-16T05:54:58;15.63;;;6.13;;
23680;SDS011;62915;50.832;4.462;2024-01-16T05:57:25;10.95;;;6.03;;
23680;SDS011;62915;50.832;4.462;2024-01-16T05:59:51;16.23;;;6.03;;
23680;SDS011;62915;50.832;4.462;2024-01-16T06:02:17;19.05;;;6.07;;
23680;SDS011;62915;50.832;4.462;2024-01-16T06:04:43;16.92;;;6.00;;
23680;SDS011;62915;50.832;4.462;2024-01-16T06:07:08;13.63;;;5.90;;
23680;SDS011;62915;50.832;4.462;2024-01-16T06:09:38;12.48;;;5.75;;
23680;SDS011;62915;50.832;4.462;2024-01-16T06:12:07;16.65;;;6.05;;
23680;SDS011;62915;50.832;4.462;2024-01-16T06:14:33;18.08;;;6.45;;
23680;SDS011;62915;50.832;4.462;2024-01-16T06:16:59;11.98;;;5.68;;
23680;SDS011;62915;50.832;4.462;2024-01-16T06:19:25;11.38;;;6.00;;
23680;SDS011;62915;50.832;4.462;2024-01-16T06:21:51;13.82;;;6.20;;
23680;SDS011;62915;50.832;4.462;2024-01-16T06:24:16;10.75;;;5.75;;
23680;SDS011;62915;50.832;4.462;2024-01-16T06:26:42;15.40;;;6.20;;
23680;SDS011;62915;50.832;4.462;2024-01-16T06:29:08;11.63;;;5.47;;
23680;SDS011;62915;50.832;4.462;2024-01-16T06:31:34;17.08;;;6.22;;
23680;SDS011;62915;50.832;4.462;2024-01-16T06:33:59;12.45;;;5.63;;
23680;SDS011;62915;50.832;4.462;2024-01-16T06:36:25;12.27;;;6.35;;
23680;SDS011;62915;50.832;4.462;2024-01-16T06:38:51;9.48;;;5.28;;
23680;SDS011;62915;50.832;4.462;2024-01-16T06:41:17;11.90;;;6.15;;
23680;SDS011;62915;50.832;4.462;2024-01-16T06:43:42;10.77;;;5.80;;
23680;SDS011;62915;50.832;4.462;2024-01-16T06:46:09;14.02;;;6.93;;
23680;SDS011;62915;50.832;4.462;2024-01-16T06:48:35;12.25;;;6.25;;
23680;SDS011;62915;50.832;4.462;2024-01-16T06:51:04;19.88;;;6.68;;
23680;SDS011;62915;50.832;4.462;2024-01-16T06:53:30;14.52;;;6.20;;
23680;SDS011;62915;50.832;4.462;2024-01-16T06:55:56;14.80;;;5.95;;
23680;SDS011;62915;50.832;4.462;2024-01-16T06:58:22;13.23;;;5.95;;
23680;SDS011;62915;50.832;4.462;2024-01-16T07:00:48;11.70;;;5.63;;
23680;SDS011;62915;50.832;4.462;2024-01-16T07:03:13;13.35;;;6.07;;
23680;SDS011;62915;50.832;4.462;2024-01-16T07:05:39;12.15;;;5.70;;
23680;SDS011;62915;50.832;4.462;2024-01-16T07:08:09;12.00;;;5.75;;
23680;SDS011;62915;50.832;4.462;2024-01-16T07:10:35;12.90;;;5.60;;
23680;SDS011;62915;50.832;4.462;2024-01-16T07:13:01;11.02;;;5.75;;
23680;SDS011;62915;50.832;4.462;2024-01-16T07:15:27;11.52;;;6.03;;
23680;SDS011;62915;50.832;4.462;2024-01-16T07:17:53;14.35;;;6.22;;
23680;SDS011;62915;50.832;4.462;2024-01-16T07:20:19;13.95;;;6.63;;
23680;SDS011;62915;50.832;4.462;2024-01-16T07:22:45;15.90;;;5.95;;
23680;SDS011;62915;50.832;4.462;2024-01-16T07:25:11;15.60;;;5.47;;
23680;SDS011;62915;50.832;4.462;2024-01-16T07:27:37;16.98;;;5.95;;
23680;SDS011;62915;50.832;4.462;2024-01-16T07:30:06;13.02;;;5.80;;
23680;SDS011;62915;50.832;4.462;2024-01-16T07:32:32;12.48;;;4.95;;
23680;SDS011;62915;50.832;4.462;2024-01-16T07:34:58;11.85;;;5.15;;
23680;SDS011;62915;50.832;4.462;2024-01-16T07:37:24;11.43;;;5.28;;
23680;SDS011;62915;50.832;4.462;2024-01-16T07:39:50;12.73;;;5.43;;
23680;SDS011;62915;50.832;4.462;2024-01-16T07:42:16;9.35;;;5.65;;
23680;SDS011;62915;50.832;4.462;2024-01-16T07:44:42;10.68;;;5.40;;
23680;SDS011;62915;50.832;4.462;2024-01-16T07:47:07;13.95;;;5.57;;
23680;SDS011;62915;50.832;4.462;2024-01-16T07:49:34;12.45;;;5.10;;
23680;SDS011;62915;50.832;4.462;2024-01-16T07:51:59;12.80;;;5.32;;
23680;SDS011;62915;50.832;4.462;2024-01-16T07:54:25;10.25;;;5.35;;
23680;SDS011;62915;50.832;4.462;2024-01-16T07:56:51;16.65;;;8.05;;
23680;SDS011;62915;50.832;4.462;2024-01-16T07:59:17;10.55;;;5.63;;
23680;SDS011;62915;50.832;4.462;2024-01-16T08:01:43;9.80;;;5.22;;
23680;SDS011;62915;50.832;4.462;2024-01-16T08:04:09;18.75;;;6.28;;
23680;SDS011;62915;50.832;4.462;2024-01-16T08:06:35;14.20;;;5.60;;
23680;SDS011;62915;50.832;4.462;2024-01-16T08:09:01;12.73;;;6.22;;
23680;SDS011;62915;50.832;4.462;2024-01-16T08:11:27;12.65;;;5.80;;
23680;SDS011;62915;50.832;4.462;2024-01-16T08:13:53;14.50;;;5.75;;
23680;SDS011;62915;50.832;4.462;2024-01-16T08:16:18;14.27;;;5.93;;
23680;SDS011;62915;50.832;4.462;2024-01-16T08:18:45;16.60;;;6.45;;
23680;SDS011;62915;50.832;4.462;2024-01-16T08:21:11;12.77;;;5.40;;
23680;SDS011;62915;50.832;4.462;2024-01-16T08:23:37;10.85;;;5.10;;
23680;SDS011;62915;50.832;4.462;2024-01-16T08:26:02;12.50;;;6.28;;
23680;SDS011;62915;50.832;4.462;2024-01-16T08:28:29;13.73;;;5.75;;
23680;SDS011;62915;50.832;4.462;2024-01-16T08:30:55;17.35;;;5.88;;
23680;SDS011;62915;50.832;4.462;2024-01-16T08:33:21;12.98;;;5.25;;
23680;SDS011;62915;50.832;4.462;2024-01-16T08:35:47;13.65;;;6.18;;
23680;SDS011;62915;50.832;4.462;2024-01-16T08:38:13;13.25;;;5.63;;
23680;SDS011;62915;50.832;4.462;2024-01-16T08:40:39;13.25;;;5.43;;
23680;SDS011;62915;50.832;4.462;2024-01-16T08:43:05;11.52;;;4.93;;
23680;SDS011;62915;50.832;4.462;2024-01-16T08:45:30;14.25;;;5.53;;
23680;SDS011;62915;50.832;4.462;2024-01-16T08:47:56;12.45;;;5.88;;
23680;SDS011;62915;50.832;4.462;2024-01-16T08:50:21;12.30;;;5.00;;
23680;SDS011;62915;50.832;4.462;2024-01-16T08:52:48;9.48;;;4.63;;
23680;SDS011;62915;50.832;4.462;2024-01-16T08:55:13;9.77;;;4.50;;
23680;SDS011;62915;50.832;4.462;2024-01-16T08:57:40;10.98;;;4.43;;
23680;SDS011;62915;50.832;4.462;2024-01-16T09:00:05;12.68;;;5.60;;
23680;SDS011;62915;50.832;4.462;2024-01-16T09:02:33;14.75;;;5.15;;
23680;SDS011;62915;50.832;4.462;2024-01-16T09:05:02;13.30;;;4.82;;
23680;SDS011;62915;50.832;4.462;2024-01-16T09:07:28;12.50;;;5.10;;
23680;SDS011;62915;50.832;4.462;2024-01-16T09:09:55;14.93;;;5.43;;
23680;SDS011;62915;50.832;4.462;2024-01-16T09:12:21;8.70;;;4.70;;
23680;SDS011;62915;50.832;4.462;2024-01-16T09:14:46;9.70;;;4.63;;
23680;SDS011;62915;50.832;4.462;2024-01-16T09:17:12;14.68;;;4.70;;
23680;SDS011;62915;50.832;4.462;2024-01-16T09:19:38;13.50;;;4.65;;
23680;SDS011;62915;50.832;4.462;2024-01-16T09:22:03;7.82;;;3.88;;
23680;SDS011;62915;50.832;4.462;2024-01-16T09:24:30;8.00;;;4.28;;
23680;SDS011;62915;50.832;4.462;2024-01-16T09:26:56;8.73;;;4.47;;
23680;SDS011;62915;50.832;4.462;2024-01-16T09:29:23;9.88;;;3.95;;
23680;SDS011;62915;50.832;4.462;2024-01-16T09:31:49;11.20;;;4.13;;
23680;SDS011;62915;50.832;4.462;2024-01-16T09:34:15;8.40;;;3.85;;
23680;SDS011;62915;50.832;4.462;2024-01-16T09:36:43;4.85;;;3.45;;
23680;SDS011;62915;50.832;4.462;2024-01-16T09:39:09;10.40;;;4.32;;
23680;SDS011;62915;50.832;4.462;2024-01-16T09:41:38;17.23;;;4.80;;
23680;SDS011;62915;50.832;4.462;2024-01-16T09:44:04;11.13;;;4.65;;
23680;SDS011;62915;50.832;4.462;2024-01-16T09:46:32;10.73;;;3.80;;
23680;SDS011;62915;50.832;4.462;2024-01-16T09:48:59;9.02;;;3.97;;
23680;SDS011;62915;50.832;4.462;2024-01-16T09:51:26;12.32;;;4.40;;
23680;SDS011;62915;50.832;4.462;2024-01-16T09:53:52;10.23;;;4.90;;
23680;SDS011;62915;50.832;4.462;2024-01-16T09:56:20;10.85;;;4.15;;
23680;SDS011;62915;50.832;4.462;2024-01-16T09:58:49;7.78;;;3.90;;
23680;SDS011;62915;50.832;4.462;2024-01-16T10:01:19;12.38;;;5.13;;
23680;SDS011;62915;50.832;4.462;2024-01-16T10:03:46;10.30;;;4.22;;
23680;SDS011;62915;50.832;4.462;2024-01-16T10:06:12;12.98;;;4.38;;
23680;SDS011;62915;50.832;4.462;2024-01-16T10:08:40;7.43;;;3.58;;
23680;SDS011;62915;50.832;4.462;2024-01-16T10:11:06;9.65;;;3.85;;
23680;SDS011;62915;50.832;4.462;2024-01-16T10:13:32;10.13;;;3.70;;
23680;SDS011;62915;50.832;4.462;2024-01-16T10:15:59;10.10;;;4.22;;
23680;SDS011;62915;50.832;4.462;2024-01-16T10:18:25;8.05;;;3.88;;
23680;SDS011;62915;50.832;4.462;2024-01-16T10:20:52;7.85;;;3.50;;
23680;SDS011;62915;50.832;4.462;2024-01-16T10:23:31;10.85;;;3.95;;
23680;SDS011;62915;50.832;4.462;2024-01-16T10:26:05;8.30;;;4.22;;
23680;SDS011;62915;50.832;4.462;2024-01-16T10:28:31;11.20;;;3.78;;
23680;SDS011;62915;50.832;4.462;2024-01-16T10:31:01;11.45;;;4.28;;
23680;SDS011;62915;50.832;4.462;2024-01-16T10:33:31;11.13;;;4.63;;
23680;SDS011;62915;50.832;4.462;2024-01-16T10:36:09;11.93;;;4.32;;
23680;SDS011;62915;50.832;4.462;2024-01-16T10:38:39;12.93;;;4.30;;
23680;SDS011;62915;50.832;4.462;2024-01-16T10:41:15;8.68;;;4.38;;
23680;SDS011;62915;50.832;4.462;2024-01-16T10:43:42;10.13;;;3.97;;
23680;SDS011;62915;50.832;4.462;2024-01-16T10:46:15;11.23;;;4.32;;
23680;SDS011;62915;50.832;4.462;2024-01-16T10:48:45;10.02;;;4.75;;
23680;SDS011;62915;50.832;4.462;2024-01-16T10:51:26;9.38;;;4.50;;
23680;SDS011;62915;50.832;4.462;2024-01-16T10:54:14;9.32;;;4.32;;
23680;SDS011;62915;50.832;4.462;2024-01-16T10:56:44;11.20;;;4.07;;
23680;SDS011;62915;50.832;4.462;2024-01-16T11:01:45;6.65;;;3.30;;
23680;SDS011;62915;50.832;4.462;2024-01-16T11:04:16;10.63;;;4.22;;
23680;SDS011;62915;50.832;4.462;2024-01-16T11:06:45;11.82;;;3.85;;
23680;SDS011;62915;50.832;4.462;2024-01-16T11:09:12;10.60;;;3.95;;
23680;SDS011;62915;50.832;4.462;2024-01-16T11:11:43;12.93;;;3.60;;
23680;SDS011;62915;50.832;4.462;2024-01-16T11:14:10;8.52;;;4.07;;
23680;SDS011;62915;50.832;4.462;2024-01-16T11:16:38;7.47;;;3.75;;
23680;SDS011;62915;50.832;4.462;2024-01-16T11:19:07;11.60;;;3.78;;
23680;SDS011;62915;50.832;4.462;2024-01-16T11:21:35;7.38;;;3.88;;
23680;SDS011;62915;50.832;4.462;2024-01-16T11:24:03;8.90;;;3.60;;
23680;SDS011;62915;50.832;4.462;2024-01-16T11:28:57;8.35;;;3.67;;
23680;SDS011;62915;50.832;4.462;2024-01-16T11:31:31;9.00;;;4.45;;
23680;SDS011;62915;50.832;4.462;2024-01-16T11:33:58;11.00;;;4.53;;
23680;SDS011;62915;50.832;4.462;2024-01-16T11:36:46;9.73;;;3.90;;
23680;SDS011;62915;50.832;4.462;2024-01-16T11:39:19;10.20;;;4.18;;
23680;SDS011;62915;50.832;4.462;2024-01-16T11:41:49;6.65;;;3.90;;
23680;SDS011;62915;50.832;4.462;2024-01-16T11:47:17;11.05;;;3.83;;
23680;SDS011;62915;50.832;4.462;2024-01-16T11:49:48;11.25;;;4.05;;
23680;SDS011;62915;50.832;4.462;2024-01-16T11:52:39;11.07;;;4.38;;
23680;SDS011;62915;50.832;4.462;2024-01-16T11:55:25;7.95;;;3.55;;
23680;SDS011;62915;50.832;4.462;2024-01-16T12:01:02;10.02;;;4.25;;
23680;SDS011;62915;50.832;4.462;2024-01-16T12:03:30;9.82;;;4.05;;
23680;SDS011;62915;50.832;4.462;2024-01-16T12:05:57;9.80;;;3.65;;
23680;SDS011;62915;50.832;4.462;2024-01-16T12:08:23;12.00;;;3.83;;
23680;SDS011;62915;50.832;4.462;2024-01-16T12:10:49;6.63;;;3.58;;
23680;SDS011;62915;50.832;4.462;2024-01-16T12:13:14;12.40;;;3.67;;
23680;SDS011;62915;50.832;4.462;2024-01-16T12:15:40;9.70;;;3.47;;
23680;SDS011;62915;50.832;4.462;2024-01-16T12:18:07;10.70;;;4.05;;
23680;SDS011;62915;50.832;4.462;2024-01-16T12:20:33;8.98;;;3.50;;
23680;SDS011;62915;50.832;4.462;2024-01-16T12:25:28;6.32;;;3.33;;
23680;SDS011;62915;50.832;4.462;2024-01-16T12:27:55;6.68;;;4.50;;
23680;SDS011;62915;50.832;4.462;2024-01-16T12:30:29;7.25;;;3.15;;
23680;SDS011;62915;50.832;4.462;2024-01-16T12:33:08;7.72;;;3.75;;
23680;SDS011;62915;50.832;4.462;2024-01-16T12:35:36;8.02;;;3.65;;
23680;SDS011;62915;50.832;4.462;2024-01-16T12:38:03;7.18;;;3.28;;
23680;SDS011;62915;50.832;4.462;2024-01-16T12:40:39;6.95;;;3.28;;
23680;SDS011;62915;50.832;4.462;2024-01-16T12:43:07;8.52;;;3.22;;
23680;SDS011;62915;50.832;4.462;2024-01-16T12:45:36;9.48;;;3.13;;
23680;SDS011;62915;50.832;4.462;2024-01-16T12:48:03;4.55;;;3.03;;
23680;SDS011;62915;50.832;4.462;2024-01-16T12:50:30;11.00;;;3.95;;
23680;SDS011;62915;50.832;4.462;2024-01-16T12:53:00;9.55;;;3.22;;
23680;SDS011;62915;50.832;4.462;2024-01-16T12:55:30;11.68;;;4.32;;
23680;SDS011;62915;50.832;4.462;2024-01-16T13:00:49;10.20;;;3.65;;
23680;SDS011;62915;50.832;4.462;2024-01-16T13:03:16;11.20;;;3.58;;
23680;SDS011;62915;50.832;4.462;2024-01-16T13:05:42;12.02;;;4.40;;
23680;SDS011;62915;50.832;4.462;2024-01-16T13:08:08;13.27;;;3.90;;
23680;SDS011;62915;50.832;4.462;2024-01-16T13:10:34;12.65;;;4.30;;
23680;SDS011;62915;50.832;4.462;2024-01-16T13:15:43;12.95;;;4.22;;
23680;SDS011;62915;50.832;4.462;2024-01-16T13:18:23;9.52;;;4.03;;
23680;SDS011;62915;50.832;4.462;2024-01-16T13:20:53;11.98;;;4.03;;
23680;SDS011;62915;50.832;4.462;2024-01-16T13:23:36;9.07;;;3.83;;
23680;SDS011;62915;50.832;4.462;2024-01-16T13:26:01;7.78;;;3.53;;
23680;SDS011;62915;50.832;4.462;2024-01-16T13:28:29;7.97;;;3.75;;
23680;SDS011;62915;50.832;4.462;2024-01-16T13:30:55;7.40;;;3.22;;
23680;SDS011;62915;50.832;4.462;2024-01-16T13:33:24;9.15;;;3.35;;
23680;SDS011;62915;50.832;4.462;2024-01-16T13:35:53;10.27;;;3.60;;
23680;SDS011;62915;50.832;4.462;2024-01-16T13:38:19;8.15;;;3.72;;
23680;SDS011;62915;50.832;4.462;2024-01-16T13:40:46;16.05;;;3.80;;
23680;SDS011;62915;50.832;4.462;2024-01-16T13:43:12;49.03;;;5.85;;
23680;SDS011;62915;50.832;4.462;2024-01-16T13:45:38;14.65;;;4.28;;
23680;SDS011;62915;50.832;4.462;2024-01-16T13:48:04;19.27;;;4.22;;
23680;SDS011;62915;50.832;4.462;2024-01-16T13:50:33;10.90;;;3.45;;
23680;SDS011;62915;50.832;4.462;2024-01-16T13:53:00;13.20;;;3.88;;
23680;SDS011;62915;50.832;4.462;2024-01-16T13:55:26;13.75;;;3.58;;
23680;SDS011;62915;50.832;4.462;2024-01-16T13:57:52;9.10;;;3.72;;
23680;SDS011;62915;50.832;4.462;2024-01-16T14:00:18;7.45;;;3.53;;
23680;SDS011;62915;50.832;4.462;2024-01-16T14:02:44;16.95;;;3.47;;
23680;SDS011;62915;50.832;4.462;2024-01-16T14:05:11;11.43;;;3.45;;
23680;SDS011;62915;50.832;4.462;2024-01-16T14:07:42;9.48;;;3.50;;
23680;SDS011;62915;50.832;4.462;2024-01-16T14:10:12;17.17;;;4.03;;
23680;SDS011;62915;50.832;4.462;2024-01-16T14:12:39;13.43;;;4.35;;
23680;SDS011;62915;50.832;4.462;2024-01-16T14:15:07;16.95;;;4.38;;
23680;SDS011;62915;50.832;4.462;2024-01-16T14:17:41;10.55;;;3.80;;
23680;SDS011;62915;50.832;4.462;2024-01-16T14:20:08;9.10;;;4.45;;
23680;SDS011;62915;50.832;4.462;2024-01-16T14:22:36;10.48;;;3.42;;
23680;SDS011;62915;50.832;4.462;2024-01-16T14:25:06;8.55;;;3.70;;
23680;SDS011;62915;50.832;4.462;2024-01-16T14:27:41;9.00;;;3.90;;
23680;SDS011;62915;50.832;4.462;2024-01-16T14:30:12;7.22;;;3.60;;
23680;SDS011;62915;50.832;4.462;2024-01-16T14:32:41;9.57;;;3.83;;
23680;SDS011;62915;50.832;4.462;2024-01-16T14:35:09;8.57;;;3.63;;
23680;SDS011;62915;50.832;4.462;2024-01-16T14:37:36;7.32;;;3.25;;
23680;SDS011;62915;50.832;4.462;2024-01-16T14:40:02;6.38;;;3.22;;
23680;SDS011;62915;50.832;4.462;2024-01-16T14:42:33;8.00;;;3.63;;
23680;SDS011;62915;50.832;4.462;2024-01-16T14:45:02;6.93;;;3.20;;
23680;SDS011;62915;50.832;4.462;2024-01-16T14:47:29;7.53;;;3.10;;
23680;SDS011;62915;50.832;4.462;2024-01-16T14:49:54;6.93;;;3.40;;
23680;SDS011;62915;50.832;4.462;2024-01-16T14:52:21;8.05;;;3.00;;
23680;SDS011;62915;50.832;4.462;2024-01-16T14:54:47;9.27;;;3.40;;
23680;SDS011;62915;50.832;4.462;2024-01-16T14:57:14;10.00;;;3.65;;